createdAt,value
2023-02-08T00:00:11.857Z,29.78
2023-02-08T00:02:41.520Z,29.72
2023-02-08T00:05:11.396Z,29.60
2023-02-08T00:07:43.663Z,29.62
2023-02-08T00:10:13.288Z,29.63
2023-02-08T00:12:43.272Z,29.68
2023-02-08T00:15:15.730Z,29.67
2023-02-08T00:17:44.948Z,29.70
2023-02-08T00:20:14.295Z,29.75
2023-02-08T00:22:53.441Z,29.77
2023-02-08T00:25:22.733Z,29.78
2023-02-08T00:27:51.795Z,29.82
2023-02-08T00:30:20.896Z,29.82
2023-02-08T00:32:57.989Z,29.87
2023-02-08T00:35:27.104Z,29.89
2023-02-08T00:37:56.228Z,29.92
2023-02-08T00:40:25.577Z,29.91
2023-02-08T00:42:54.692Z,29.94
2023-02-08T00:45:24.500Z,29.95
2023-02-08T00:47:56.353Z,29.96
2023-02-08T00:50:26.162Z,29.96
2023-02-08T00:52:55.283Z,29.98
2023-02-08T00:55:26.806Z,29.85
2023-02-08T00:57:58.394Z,29.80
2023-02-08T01:00:27.790Z,29.77
2023-02-08T01:02:57.152Z,29.72
2023-02-08T01:05:26.198Z,29.69
2023-02-08T01:07:55.249Z,29.66
2023-02-08T01:10:24.431Z,29.64
2023-02-08T01:12:55.678Z,29.60
2023-02-08T01:15:24.024Z,29.59
2023-02-08T01:17:56.524Z,29.57
2023-02-08T01:20:25.644Z,29.55
2023-02-08T01:22:54.709Z,29.55
2023-02-08T01:25:23.912Z,29.53
2023-02-08T01:27:53.568Z,29.51
2023-02-08T01:30:23.260Z,29.49
2023-02-08T01:32:56.749Z,29.45
2023-02-08T01:35:25.482Z,29.44
2023-02-08T01:37:54.749Z,29.42
2023-02-08T01:40:23.811Z,29.41
2023-02-08T01:42:53.350Z,29.39
2023-02-08T01:45:29.782Z,29.36
2023-02-08T01:48:00.589Z,29.35
2023-02-08T01:50:31.693Z,29.32
2023-02-08T01:53:00.916Z,29.31
2023-02-08T01:55:34.404Z,29.29
2023-02-08T01:58:04.068Z,29.29
2023-02-08T02:00:34.336Z,29.27
2023-02-08T02:03:03.493Z,29.27
2023-02-08T02:05:33.930Z,29.14
2023-02-08T02:08:03.080Z,29.12
2023-02-08T02:10:38.052Z,29.38
2023-02-08T02:13:11.971Z,29.63
2023-02-08T02:15:44.365Z,29.43
2023-02-08T02:18:13.671Z,29.41
2023-02-08T02:20:47.021Z,29.40
2023-02-08T02:23:34.222Z,29.41
2023-02-08T02:26:20.922Z,29.41
2023-02-08T02:29:06.545Z,29.46
2023-02-08T02:31:59.270Z,29.47
2023-02-08T02:34:47.607Z,29.47
2023-02-08T02:38:06.379Z,29.50
2023-02-08T02:40:13.248Z,29.48
2023-02-08T02:43:04.064Z,29.35
2023-02-08T02:45:41.162Z,29.29
2023-02-08T02:48:22.616Z,29.25
2023-02-08T02:50:53.100Z,29.24
2023-02-08T02:53:22.653Z,29.19
2023-02-08T02:55:55.999Z,29.17
2023-02-08T02:58:25.055Z,29.11
2023-02-08T03:00:54.922Z,29.08
2023-02-08T03:03:30.599Z,29.06
2023-02-08T03:06:00.955Z,29.05
2023-02-08T03:08:46.679Z,29.04
2023-02-08T03:11:23.151Z,28.99
2023-02-08T03:14:03.359Z,29.00
2023-02-08T03:16:38.748Z,29.08
2023-02-08T03:19:12.126Z,29.09
2023-02-08T03:21:52.577Z,29.11
2023-02-08T03:24:23.630Z,29.11
2023-02-08T03:26:54.054Z,29.14
2023-02-08T03:29:27.486Z,29.15
2023-02-08T03:31:58.274Z,29.16
2023-02-08T03:34:31.700Z,29.19
2023-02-08T03:37:02.161Z,29.18
2023-02-08T03:39:31.198Z,29.09
2023-02-08T03:42:02.181Z,29.14
2023-02-08T03:44:41.930Z,29.21
2023-02-08T03:47:15.178Z,29.22
2023-02-08T03:49:44.777Z,29.22
2023-02-08T03:52:14.740Z,29.24
2023-02-08T03:54:46.028Z,29.23
2023-02-08T03:57:28.821Z,29.24
2023-02-08T03:59:58.972Z,29.23
2023-02-08T04:02:28.875Z,29.22
2023-02-08T04:04:57.999Z,29.17
2023-02-08T04:07:27.116Z,29.00
2023-02-08T04:09:56.208Z,28.96
2023-02-08T04:12:25.262Z,28.90
2023-02-08T04:14:54.362Z,28.85
2023-02-08T04:17:23.425Z,28.81
2023-02-08T04:19:52.572Z,28.79
2023-02-08T04:22:21.734Z,28.75
2023-02-08T04:24:51.030Z,28.69
2023-02-08T04:27:20.141Z,28.71
2023-02-08T04:29:49.343Z,28.60
2023-02-08T04:32:18.586Z,28.58
2023-02-08T04:34:48.314Z,28.56
2023-02-08T04:37:17.404Z,28.52
2023-02-08T04:39:46.462Z,28.48
2023-02-08T04:42:19.408Z,28.47
2023-02-08T04:44:48.548Z,28.46
2023-02-08T04:47:19.892Z,28.43
2023-02-08T04:49:48.985Z,28.41
2023-02-08T04:52:18.209Z,28.38
2023-02-08T04:54:47.412Z,28.38
2023-02-08T04:57:16.665Z,28.37
2023-02-08T04:59:45.780Z,28.34
2023-02-08T05:02:14.809Z,28.35
2023-02-08T05:04:44.030Z,28.34
2023-02-08T05:07:14.090Z,28.31
2023-02-08T05:09:44.001Z,28.31
2023-02-08T05:12:13.975Z,28.28
2023-02-08T05:14:43.299Z,28.29
2023-02-08T05:17:13.080Z,28.24
2023-02-08T05:19:44.619Z,28.26
2023-02-08T05:22:14.003Z,28.24
2023-02-08T05:24:44.061Z,28.24
2023-02-08T05:27:13.247Z,28.22
2023-02-08T05:29:43.888Z,28.20
2023-02-08T05:32:13.512Z,28.21
2023-02-08T05:34:43.198Z,28.19
2023-02-08T05:37:13.433Z,28.20
2023-02-08T05:39:43.949Z,28.18
2023-02-08T05:42:13.555Z,28.17
2023-02-08T05:44:43.176Z,28.17
2023-02-08T05:47:13.195Z,28.16
2023-02-08T05:49:43.264Z,28.14
2023-02-08T05:52:13.481Z,28.14
2023-02-08T05:54:43.260Z,28.15
2023-02-08T05:57:13.277Z,28.14
2023-02-08T05:59:43.213Z,28.12
2023-02-08T06:02:13.224Z,28.09
2023-02-08T06:04:43.341Z,28.09
2023-02-08T06:07:13.189Z,28.13
2023-02-08T06:09:43.283Z,28.10
2023-02-08T06:12:13.318Z,28.08
2023-02-08T06:14:43.275Z,28.07
2023-02-08T06:17:13.239Z,28.06
2023-02-08T06:19:43.326Z,28.05
2023-02-08T06:22:13.252Z,28.05
2023-02-08T06:24:43.256Z,28.04
2023-02-08T06:27:13.330Z,28.01
2023-02-08T06:29:43.304Z,27.99
2023-02-08T06:32:13.427Z,28.00
2023-02-08T06:34:43.397Z,28.01
2023-02-08T06:37:13.255Z,28.02
2023-02-08T06:39:43.335Z,28.01
2023-02-08T06:42:13.408Z,27.99
2023-02-08T06:44:54.148Z,28.00
2023-02-08T06:47:14.178Z,27.98
2023-02-08T06:49:43.425Z,27.96
2023-02-08T06:52:13.552Z,27.96
2023-02-08T06:54:43.898Z,27.97
2023-02-08T06:57:13.902Z,27.94
2023-02-08T06:59:43.422Z,27.93
2023-02-08T07:02:16.670Z,27.93
2023-02-08T07:04:46.210Z,27.90
2023-02-08T07:07:15.275Z,27.92
2023-02-08T07:09:45.202Z,27.92
2023-02-08T07:12:15.173Z,27.90
2023-02-08T07:14:47.634Z,27.91
2023-02-08T07:17:20.057Z,27.87
2023-02-08T07:19:49.128Z,27.86
2023-02-08T07:22:18.163Z,27.87
2023-02-08T07:24:47.206Z,27.86
2023-02-08T07:27:16.351Z,27.89
2023-02-08T07:29:45.412Z,27.83
2023-02-08T07:32:14.684Z,27.83
2023-02-08T07:34:44.357Z,27.85
2023-02-08T07:37:14.508Z,27.82
2023-02-08T07:39:44.381Z,27.85
2023-02-08T07:42:16.644Z,27.82
2023-02-08T07:44:45.757Z,27.82
2023-02-08T07:47:15.273Z,27.83
2023-02-08T07:49:47.476Z,27.83
2023-02-08T07:52:16.532Z,27.82
2023-02-08T07:54:45.706Z,27.82
2023-02-08T07:57:16.773Z,27.78
2023-02-08T07:59:46.000Z,27.79
2023-02-08T08:02:17.026Z,27.80
2023-02-08T08:04:46.276Z,27.78
2023-02-08T08:07:18.201Z,27.81
2023-02-08T08:09:47.526Z,27.77
2023-02-08T08:12:44.810Z,27.79
2023-02-08T08:15:17.430Z,27.80
2023-02-08T08:17:47.257Z,27.79
2023-02-08T08:20:18.050Z,27.78
2023-02-08T08:22:47.154Z,27.80
2023-02-08T08:25:16.326Z,27.76
2023-02-08T08:27:45.485Z,27.80
2023-02-08T08:30:47.613Z,27.78
2023-02-08T08:33:16.853Z,27.74
2023-02-08T08:35:47.394Z,27.74
2023-02-08T08:38:16.512Z,27.75
2023-02-08T08:40:45.617Z,27.74
2023-02-08T08:43:14.570Z,27.74
2023-02-08T08:45:44.402Z,27.76
2023-02-08T08:48:14.671Z,27.73
2023-02-08T08:50:44.644Z,27.71
2023-02-08T08:53:14.556Z,27.72
2023-02-08T08:55:45.746Z,27.73
2023-02-08T08:58:15.427Z,27.74
2023-02-08T09:00:45.133Z,27.73
2023-02-08T09:03:14.739Z,27.73
2023-02-08T09:05:44.049Z,27.71
2023-02-08T09:08:14.548Z,27.75
2023-02-08T09:10:44.168Z,27.74
2023-02-08T09:13:15.132Z,27.71
2023-02-08T09:15:44.660Z,27.74
2023-02-08T09:18:14.707Z,27.71
2023-02-08T09:21:07.228Z,27.71
2023-02-08T09:23:36.399Z,27.71
2023-02-08T09:26:05.913Z,27.71
2023-02-08T09:28:35.053Z,27.69
2023-02-08T09:31:11.705Z,27.70
2023-02-08T09:33:50.073Z,27.70
2023-02-08T09:36:19.140Z,27.68
2023-02-08T09:38:48.202Z,27.71
2023-02-08T09:41:26.412Z,27.70
2023-02-08T09:43:56.788Z,27.70
2023-02-08T09:46:26.698Z,27.69
2023-02-08T09:48:55.862Z,27.71
2023-02-08T09:51:29.187Z,27.76
2023-02-08T09:53:59.592Z,27.81
2023-02-08T09:56:30.259Z,27.80
2023-02-08T09:58:59.326Z,27.79
2023-02-08T10:01:32.206Z,27.82
2023-02-08T10:04:11.645Z,27.80
2023-02-08T10:06:40.745Z,27.81
2023-02-08T10:09:11.296Z,27.80
2023-02-08T10:11:44.909Z,27.84
2023-02-08T10:14:32.211Z,27.83
2023-02-08T10:17:02.633Z,27.87
2023-02-08T10:19:49.453Z,27.83
2023-02-08T10:22:19.947Z,27.89
2023-02-08T10:24:53.322Z,27.87
2023-02-08T10:27:40.294Z,27.93
2023-02-08T10:30:13.521Z,27.89
2023-02-08T10:32:52.757Z,27.96
2023-02-08T10:35:26.672Z,27.96
2023-02-08T10:37:56.997Z,27.92
2023-02-08T10:40:27.476Z,27.95
2023-02-08T10:43:00.821Z,27.94
2023-02-08T10:45:34.423Z,27.96
2023-02-08T10:48:11.454Z,27.99
2023-02-08T10:53:08.375Z,27.91
2023-02-08T10:55:37.640Z,27.96
2023-02-08T10:58:06.770Z,27.96
2023-02-08T11:00:37.073Z,27.94
2023-02-08T11:03:07.754Z,27.98
2023-02-08T11:05:37.537Z,27.91
2023-02-08T11:08:07.154Z,27.96
2023-02-08T11:10:36.324Z,27.99
2023-02-08T11:13:20.818Z,27.98
2023-02-08T11:15:57.480Z,28.00
2023-02-08T11:18:31.978Z,28.03
2023-02-08T11:21:01.637Z,28.00
2023-02-08T11:23:33.074Z,28.04
2023-02-08T11:26:18.148Z,28.02
2023-02-08T11:28:47.331Z,27.97
2023-02-08T11:31:20.158Z,28.05
2023-02-08T11:34:00.003Z,28.03
2023-02-08T11:36:30.819Z,27.99
2023-02-08T11:38:59.713Z,27.98
2023-02-08T11:41:28.845Z,28.03
2023-02-08T11:44:04.851Z,27.93
2023-02-08T11:46:34.381Z,27.94
2023-02-08T11:49:04.409Z,28.06
2023-02-08T11:51:35.260Z,28.16
2023-02-08T11:54:04.309Z,28.23
2023-02-08T11:56:33.922Z,28.45
2023-02-08T11:59:08.544Z,28.63
2023-02-08T12:01:44.685Z,29.13
2023-02-08T12:04:15.755Z,29.41
2023-02-08T12:06:49.613Z,29.62
2023-02-08T12:09:26.306Z,29.76
2023-02-08T12:11:59.610Z,29.85
2023-02-08T12:14:42.446Z,29.96
2023-02-08T12:17:30.967Z,29.98
2023-02-08T12:20:06.871Z,30.01
2023-02-08T12:22:36.678Z,29.95
2023-02-08T12:25:23.345Z,29.87
2023-02-08T12:28:02.652Z,29.79
2023-02-08T12:30:35.802Z,29.88
2023-02-08T12:33:09.327Z,30.01
2023-02-08T12:36:04.538Z,30.01
2023-02-08T12:38:48.074Z,30.05
2023-02-08T12:41:37.519Z,29.88
2023-02-08T12:44:20.746Z,29.82
2023-02-08T12:46:51.270Z,29.77
2023-02-08T12:49:30.301Z,29.74
2023-02-08T12:52:03.493Z,29.75
2023-02-08T12:54:36.747Z,29.75
2023-02-08T12:57:08.436Z,29.85
2023-02-08T12:59:41.431Z,29.79
2023-02-08T13:02:27.184Z,29.74
2023-02-08T13:04:58.151Z,29.66
2023-02-08T13:07:36.897Z,29.63
2023-02-08T13:10:07.415Z,29.65
2023-02-08T13:12:37.996Z,29.58
2023-02-08T13:15:28.591Z,29.61
2023-02-08T13:17:59.184Z,29.53
2023-02-08T13:20:41.750Z,29.60
2023-02-08T13:23:27.153Z,29.57
2023-02-08T13:25:57.191Z,29.61
2023-02-08T13:28:28.633Z,29.57
2023-02-08T13:30:58.971Z,29.51
2023-02-08T13:34:00.458Z,29.42
2023-02-08T13:36:27.176Z,29.43
2023-02-08T13:38:56.451Z,29.39
2023-02-08T13:41:25.991Z,29.39
2023-02-08T13:43:59.826Z,29.36
2023-02-08T13:46:29.008Z,29.31
2023-02-08T13:48:58.763Z,29.29
2023-02-08T13:51:35.277Z,29.23
2023-02-08T13:54:09.245Z,29.24
2023-02-08T13:56:42.949Z,29.23
2023-02-08T13:59:27.696Z,29.20
2023-02-08T14:02:16.335Z,29.19
2023-02-08T14:04:46.467Z,29.14
2023-02-08T14:07:17.776Z,29.10
2023-02-08T14:09:48.253Z,29.11
2023-02-08T14:12:24.973Z,29.08
2023-02-08T14:15:10.785Z,29.06
2023-02-08T14:17:39.857Z,29.06
2023-02-08T14:20:09.247Z,29.07
2023-02-08T14:22:41.944Z,29.02
2023-02-08T14:25:12.521Z,28.99
2023-02-08T14:27:45.726Z,28.97
2023-02-08T14:30:23.466Z,28.93
2023-02-08T14:32:56.368Z,28.93
2023-02-08T14:35:28.365Z,28.90
2023-02-08T14:38:03.704Z,28.86
2023-02-08T14:40:36.125Z,28.86
2023-02-08T14:43:09.112Z,28.55
2023-02-08T14:45:38.713Z,28.40
2023-02-08T14:48:09.137Z,28.37
2023-02-08T14:50:40.852Z,28.30
2023-02-08T14:53:21.206Z,28.29
2023-02-08T14:55:54.894Z,28.23
2023-02-08T14:58:31.452Z,28.21
2023-02-08T15:01:02.190Z,28.18
2023-02-08T15:03:34.695Z,28.16
2023-02-08T15:06:17.495Z,28.09
2023-02-08T15:08:55.552Z,28.10
2023-02-08T15:11:25.718Z,28.10
2023-02-08T15:13:55.922Z,28.09
2023-02-08T15:16:26.460Z,28.09
2023-02-08T15:18:55.630Z,28.08
2023-02-08T15:21:26.465Z,28.07
2023-02-08T15:24:05.543Z,28.05
2023-02-08T15:26:33.494Z,28.07
2023-02-08T15:29:03.091Z,28.02
2023-02-08T15:31:33.959Z,28.02
2023-02-08T15:34:03.238Z,28.01
2023-02-08T15:36:35.762Z,28.03
2023-02-08T15:39:06.176Z,28.15
2023-02-08T15:41:35.393Z,28.08
2023-02-08T15:44:20.923Z,28.03
2023-02-08T15:49:41.636Z,27.98
2023-02-08T15:52:10.670Z,27.96
2023-02-08T15:54:39.732Z,27.95
2023-02-08T15:57:12.228Z,27.94
2023-02-08T15:59:41.280Z,27.96
2023-02-08T16:02:21.717Z,27.95
2023-02-08T16:04:50.843Z,27.90
2023-02-08T16:07:27.399Z,27.84
2023-02-08T16:09:56.638Z,27.93
2023-02-08T16:12:25.894Z,27.97
2023-02-08T16:14:56.310Z,27.99
2023-02-08T16:17:29.782Z,27.99
2023-02-08T16:19:58.941Z,28.00
2023-02-08T16:22:28.528Z,28.02
2023-02-08T16:24:59.068Z,28.03
2023-02-08T16:27:28.796Z,28.01
2023-02-08T16:29:57.734Z,28.03
2023-02-08T16:32:28.221Z,28.06
2023-02-08T16:34:59.387Z,28.07
2023-02-08T16:37:30.821Z,28.06
2023-02-08T16:40:00.754Z,28.07
2023-02-08T16:42:37.593Z,28.05
2023-02-08T16:45:16.464Z,28.07
2023-02-08T16:47:47.199Z,28.07
2023-02-08T16:50:17.476Z,28.08
2023-02-08T16:52:48.375Z,28.09
2023-02-08T16:55:18.742Z,28.09
2023-02-08T16:57:49.065Z,28.09
2023-02-08T17:00:22.328Z,28.07
2023-02-08T17:02:51.460Z,28.07
2023-02-08T17:05:20.695Z,28.07
2023-02-08T17:07:49.804Z,28.05
2023-02-08T17:10:21.004Z,28.07
2023-02-08T17:12:50.065Z,28.06
2023-02-08T17:15:19.185Z,28.05
2023-02-08T17:17:48.215Z,28.03
2023-02-08T17:20:29.748Z,28.02
2023-02-08T17:22:59.410Z,28.04
2023-02-08T17:25:28.540Z,28.02
2023-02-08T17:27:58.272Z,28.01
2023-02-08T17:30:28.783Z,28.01
2023-02-08T17:32:57.902Z,28.00
2023-02-08T17:35:27.161Z,27.98
2023-02-08T17:37:58.836Z,27.98
2023-02-08T17:40:30.070Z,27.98
2023-02-08T17:42:59.117Z,27.95
2023-02-08T17:45:28.871Z,27.94
2023-02-08T17:47:58.004Z,27.93
2023-02-08T17:50:27.066Z,27.88
2023-02-08T17:52:56.605Z,27.86
2023-02-08T17:55:25.793Z,27.79
2023-02-08T17:57:54.863Z,27.65
2023-02-08T18:00:24.663Z,27.58
2023-02-08T18:02:54.581Z,27.50
2023-02-08T18:05:27.275Z,27.48
2023-02-08T18:07:56.723Z,27.49
2023-02-08T18:10:25.939Z,27.47
2023-02-08T18:12:57.791Z,27.48
2023-02-08T18:15:26.934Z,27.45
2023-02-08T18:17:55.987Z,27.45
2023-02-08T18:20:25.038Z,27.44
2023-02-08T18:22:54.900Z,27.41
2023-02-08T18:25:23.963Z,27.42
2023-02-08T18:27:53.038Z,27.41
2023-02-08T18:30:22.425Z,27.42
2023-02-08T18:32:51.480Z,27.43
2023-02-08T18:35:20.667Z,27.41
2023-02-08T18:37:50.329Z,27.39
2023-02-08T18:40:19.464Z,27.37
2023-02-08T18:42:48.626Z,27.36
2023-02-08T18:45:17.670Z,27.36
2023-02-08T18:47:46.769Z,27.37
2023-02-08T18:50:16.848Z,27.38
2023-02-08T18:52:46.923Z,27.34
2023-02-08T18:55:16.738Z,27.34
2023-02-08T18:57:48.263Z,27.30
2023-02-08T19:00:17.822Z,27.26
2023-02-08T19:02:47.572Z,27.36
2023-02-08T19:05:17.688Z,27.54
2023-02-08T19:07:48.240Z,27.73
2023-02-08T19:10:17.845Z,27.94
2023-02-08T19:12:47.752Z,28.09
2023-02-08T19:15:17.672Z,28.27
2023-02-08T19:17:47.638Z,28.39
2023-02-08T19:20:17.778Z,28.47
2023-02-08T19:22:47.631Z,28.47
2023-02-08T19:25:16.983Z,28.56
2023-02-08T19:27:46.867Z,28.68
2023-02-08T19:30:17.978Z,28.82
2023-02-08T19:32:47.669Z,28.91
2023-02-08T19:35:17.802Z,28.94
2023-02-08T19:37:50.374Z,29.04
2023-02-08T19:40:19.806Z,29.12
2023-02-08T19:42:49.836Z,29.07
2023-02-08T19:45:18.986Z,29.12
2023-02-08T19:47:51.455Z,29.22
2023-02-08T19:50:19.115Z,29.33
2023-02-08T19:52:48.207Z,29.36
2023-02-08T19:55:17.742Z,29.40
2023-02-08T19:57:47.823Z,29.47
2023-02-08T20:00:23.882Z,29.44
2023-02-08T20:02:50.851Z,29.43
2023-02-08T20:05:20.122Z,29.47
2023-02-08T20:07:49.162Z,29.58
2023-02-08T20:10:19.041Z,29.69
2023-02-08T20:12:48.133Z,29.71
2023-02-08T20:15:17.823Z,29.75
2023-02-08T20:17:47.750Z,29.77
2023-02-08T20:20:19.980Z,29.77
2023-02-08T20:22:49.005Z,29.72
2023-02-08T20:25:18.129Z,29.77
2023-02-08T20:27:47.900Z,29.83
2023-02-08T20:30:18.321Z,29.88
2023-02-08T20:32:49.163Z,29.96
2023-02-08T20:35:18.876Z,30.05
2023-02-08T20:37:48.186Z,29.96
2023-02-08T20:40:17.935Z,29.93
2023-02-08T20:42:47.980Z,29.98
2023-02-08T20:45:17.888Z,30.11
2023-02-08T20:47:47.906Z,30.12
2023-02-08T20:50:19.643Z,30.22
2023-02-08T20:52:49.959Z,30.24
2023-02-08T20:55:19.060Z,30.16
2023-02-08T20:57:51.903Z,30.09
2023-02-08T21:00:21.701Z,30.09
2023-02-08T21:02:51.025Z,30.17
2023-02-08T21:05:20.176Z,30.23
2023-02-08T21:07:49.386Z,30.22
2023-02-08T21:10:18.625Z,30.18
2023-02-08T21:12:49.462Z,30.29
2023-02-08T21:15:21.100Z,30.15
2023-02-08T21:17:50.456Z,30.15
2023-02-08T21:20:22.162Z,30.17
2023-02-08T21:22:51.586Z,30.26
2023-02-08T21:25:20.802Z,30.32
2023-02-08T21:27:50.152Z,30.30
2023-02-08T21:30:19.452Z,30.29
2023-02-08T21:32:48.669Z,30.34
2023-02-08T21:35:18.630Z,30.32
2023-02-08T21:37:47.997Z,30.17
2023-02-08T21:40:18.222Z,30.17
2023-02-08T21:42:47.969Z,30.31
2023-02-08T21:45:17.284Z,30.35
2023-02-08T21:47:47.219Z,30.40
2023-02-08T21:50:34.715Z,30.42
2023-02-08T21:53:21.424Z,30.43
2023-02-08T21:55:50.512Z,30.27
2023-02-08T21:58:22.078Z,30.25
2023-02-08T22:00:51.952Z,30.34
2023-02-08T22:03:21.766Z,30.44
2023-02-08T22:06:08.290Z,30.53
2023-02-08T22:08:37.487Z,30.56
2023-02-08T22:11:08.844Z,30.46
2023-02-08T22:13:38.413Z,30.37
2023-02-08T22:16:11.069Z,30.37
2023-02-08T22:18:41.711Z,30.52
2023-02-08T22:21:10.896Z,30.65
2023-02-08T22:23:39.962Z,30.71
2023-02-08T22:26:09.757Z,30.82
2023-02-08T22:28:38.882Z,30.89
2023-02-08T22:31:08.273Z,30.95
2023-02-08T22:33:37.498Z,31.02
2023-02-08T22:36:11.293Z,30.97
2023-02-08T22:38:40.428Z,31.04
2023-02-08T22:41:13.139Z,31.09
2023-02-08T22:43:42.266Z,31.17
2023-02-08T22:46:14.555Z,31.22
2023-02-08T22:48:43.806Z,31.26
2023-02-08T22:51:17.866Z,31.29
2023-02-08T22:53:47.339Z,31.35
2023-02-08T22:56:17.580Z,31.35
2023-02-08T22:58:47.429Z,31.31
2023-02-08T23:01:18.026Z,31.40
2023-02-08T23:03:49.815Z,31.43
2023-02-08T23:06:19.252Z,31.48
2023-02-08T23:08:49.103Z,31.49
2023-02-08T23:11:18.487Z,31.50
2023-02-08T23:13:48.245Z,31.48
2023-02-08T23:16:17.797Z,31.52
2023-02-08T23:18:47.605Z,31.38
2023-02-08T23:21:18.243Z,31.27
2023-02-08T23:23:48.400Z,31.22
2023-02-08T23:26:19.604Z,31.29
2023-02-08T23:28:48.700Z,31.31
2023-02-08T23:31:19.202Z,31.38
2023-02-08T23:33:48.581Z,31.45
2023-02-08T23:36:19.929Z,31.43
2023-02-08T23:38:49.048Z,31.12
2023-02-08T23:41:19.979Z,31.08
2023-02-08T23:43:49.083Z,31.17
2023-02-08T23:46:22.213Z,31.26
2023-02-08T23:48:52.936Z,31.31
2023-02-08T23:51:23.134Z,31.35
2023-02-08T23:53:52.216Z,31.19
2023-02-08T23:56:21.974Z,30.96
2023-02-08T23:58:51.422Z,30.86
